createdAt,value
2022-10-11T00:03:26.994Z,67.59
2022-10-11T00:08:30.970Z,67.65
2022-10-11T00:13:33.939Z,67.83
2022-10-11T00:18:36.632Z,67.88
2022-10-11T00:23:41.235Z,67.86
2022-10-11T00:28:44.142Z,67.83
2022-10-11T00:33:47.767Z,68.04
2022-10-11T00:38:51.683Z,68.10
2022-10-11T00:44:10.396Z,68.26
2022-10-11T00:49:20.529Z,68.44
2022-10-11T00:54:29.547Z,68.62
2022-10-11T00:59:37.062Z,68.72
2022-10-11T01:04:40.876Z,68.90
2022-10-11T01:09:44.822Z,69.08
2022-10-11T01:15:06.128Z,69.22
2022-10-11T01:20:32.085Z,69.51
2022-10-11T01:25:52.829Z,69.58
2022-10-11T01:31:05.629Z,69.69
2022-10-11T01:36:17.283Z,69.90
2022-10-11T01:41:25.446Z,69.97
2022-10-11T01:46:31.445Z,70.04
2022-10-11T01:51:38.985Z,70.03
2022-10-11T01:57:17.572Z,70.07
2022-10-11T02:02:38.692Z,70.17
2022-10-11T02:07:46.606Z,70.12
2022-10-11T02:12:55.069Z,70.41
2022-10-11T02:18:04.342Z,70.39
2022-10-11T02:23:11.680Z,70.64
2022-10-11T02:28:18.697Z,70.77
2022-10-11T02:33:29.131Z,70.85
2022-10-11T02:38:38.377Z,70.90
2022-10-11T02:43:46.856Z,70.99
2022-10-11T02:48:52.195Z,71.00
2022-10-11T02:53:54.846Z,71.12
2022-10-11T02:58:57.418Z,71.00
2022-10-11T03:04:01.464Z,71.11
2022-10-11T03:09:07.031Z,71.41
2022-10-11T03:14:09.584Z,71.50
2022-10-11T03:19:16.978Z,71.71
2022-10-11T03:24:21.919Z,71.83
2022-10-11T03:29:24.739Z,71.86
2022-10-11T03:34:28.764Z,71.67
2022-10-11T03:39:31.348Z,71.54
2022-10-11T03:44:34.093Z,71.65
2022-10-11T03:49:42.711Z,71.71
2022-10-11T03:54:46.279Z,71.72
2022-10-11T03:59:49.075Z,71.73
2022-10-11T04:04:53.035Z,71.89
2022-10-11T04:09:55.656Z,71.65
2022-10-11T04:14:58.315Z,71.69
2022-10-11T04:20:02.445Z,71.78
2022-10-11T04:25:05.871Z,71.82
2022-10-11T04:30:10.008Z,71.92
2022-10-11T04:35:14.507Z,71.80
2022-10-11T04:40:17.425Z,71.79
2022-10-11T04:45:20.187Z,71.75
2022-10-11T04:50:24.227Z,71.79
2022-10-11T04:55:27.051Z,71.63
2022-10-11T05:00:29.750Z,71.60
2022-10-11T05:05:33.826Z,71.67
2022-10-11T05:10:36.421Z,71.79
2022-10-11T05:15:39.093Z,71.61
2022-10-11T05:20:43.071Z,71.68
2022-10-11T05:25:45.630Z,71.72
2022-10-11T05:30:48.233Z,71.59
2022-10-11T05:35:52.869Z,71.76
2022-10-11T05:40:55.880Z,71.52
2022-10-11T05:45:58.848Z,71.58
2022-10-11T05:51:05.058Z,71.59
2022-10-11T05:56:19.388Z,71.66
2022-10-11T06:01:24.200Z,71.59
2022-10-11T06:06:28.193Z,71.45
2022-10-11T06:11:30.891Z,71.53
2022-10-11T06:16:33.455Z,71.58
2022-10-11T06:21:37.502Z,71.63
2022-10-11T06:26:40.543Z,71.48
2022-10-11T06:31:43.158Z,71.57
2022-10-11T06:36:47.117Z,71.46
2022-10-11T06:41:49.720Z,71.26
2022-10-11T06:46:52.322Z,71.60
2022-10-11T06:51:56.286Z,71.34
2022-10-11T06:56:58.833Z,71.24
2022-10-11T07:02:01.438Z,71.51
2022-10-11T07:07:05.404Z,71.21
2022-10-11T07:12:08.865Z,59.99
2022-10-11T07:17:11.462Z,59.97
2022-10-11T07:22:15.474Z,60.69
2022-10-11T07:27:18.127Z,62.37
2022-10-11T07:32:20.720Z,63.07
2022-10-11T07:37:24.946Z,63.05
2022-10-11T07:42:27.514Z,63.47
2022-10-11T07:47:30.374Z,63.91
2022-10-11T07:52:36.277Z,64.03
2022-10-11T07:57:38.976Z,64.56
2022-10-11T08:02:41.571Z,64.78
2022-10-11T08:07:45.776Z,65.02
2022-10-11T08:12:48.420Z,65.81
2022-10-11T08:17:50.974Z,66.11
2022-10-11T08:22:54.896Z,66.46
2022-10-11T08:27:57.686Z,66.66
2022-10-11T08:33:07.546Z,66.82
2022-10-11T08:38:12.845Z,67.52
2022-10-11T08:43:28.177Z,61.74
2022-10-11T08:48:35.905Z,60.77
2022-10-11T08:53:47.560Z,60.76
2022-10-11T08:58:56.834Z,64.52
2022-10-11T09:04:00.124Z,64.75
2022-10-11T09:09:16.683Z,64.86
2022-10-11T09:14:46.709Z,64.94
2022-10-11T09:20:32.418Z,65.36
2022-10-11T09:25:46.852Z,65.65
2022-10-11T09:30:51.497Z,66.07
2022-10-11T09:35:54.138Z,66.02
2022-10-11T09:41:08.922Z,66.24
2022-10-11T09:46:20.555Z,67.91
2022-10-11T09:51:26.440Z,68.25
2022-10-11T09:56:33.061Z,68.58
2022-10-11T10:01:36.299Z,68.54
2022-10-11T10:06:40.556Z,68.46
2022-10-11T10:11:44.549Z,67.96
2022-10-11T10:16:47.355Z,67.66
2022-10-11T10:21:51.717Z,67.36
2022-10-11T10:27:16.859Z,66.91
2022-10-11T10:32:27.844Z,66.79
2022-10-11T10:37:35.918Z,66.55
2022-10-11T10:42:40.036Z,66.45
2022-10-11T10:47:59.345Z,66.08
2022-10-11T10:53:17.474Z,66.06
2022-10-11T10:58:37.635Z,65.77
2022-10-11T11:03:47.544Z,65.77
2022-10-11T11:09:04.346Z,65.46
2022-10-11T11:14:24.056Z,65.18
2022-10-11T11:19:41.797Z,64.99
2022-10-11T11:24:51.536Z,64.95
2022-10-11T11:30:03.222Z,64.76
2022-10-11T11:35:15.067Z,64.57
2022-10-11T11:40:19.952Z,64.55
2022-10-11T11:45:29.121Z,64.75
2022-10-11T11:50:39.955Z,64.58
2022-10-11T11:55:49.183Z,63.53
2022-10-11T12:01:02.330Z,62.75
2022-10-11T12:06:21.105Z,60.26
2022-10-11T12:11:31.780Z,61.45
2022-10-11T12:17:19.346Z,61.29
2022-10-11T12:22:40.698Z,60.64
2022-10-11T12:32:55.214Z,60.06
2022-10-11T12:38:06.353Z,60.20
2022-10-11T12:43:25.333Z,59.94
2022-10-11T12:48:46.610Z,59.76
2022-10-11T12:54:26.689Z,59.43
2022-10-11T12:59:33.102Z,59.26
2022-10-11T13:04:37.031Z,59.15
2022-10-11T13:09:46.596Z,58.93
2022-10-11T13:15:01.144Z,59.57
2022-10-11T13:20:16.757Z,59.48
2022-10-11T13:25:22.149Z,59.96
2022-10-11T13:30:28.245Z,60.35
2022-10-11T13:35:35.417Z,59.64
2022-10-11T13:40:38.731Z,60.35
2022-10-11T13:45:41.445Z,60.06
2022-10-11T13:50:52.051Z,60.15
2022-10-11T13:55:57.971Z,60.27
2022-10-11T14:01:03.745Z,60.56
2022-10-11T14:06:09.140Z,60.92
2022-10-11T14:11:14.279Z,61.07
2022-10-11T14:16:30.654Z,61.42
2022-10-11T14:21:36.760Z,61.60
2022-10-11T14:26:42.194Z,61.74
2022-10-11T14:31:46.051Z,61.76
2022-10-11T14:36:50.352Z,62.03
2022-10-11T14:41:53.538Z,62.19
2022-10-11T14:46:56.174Z,62.16
2022-10-11T14:52:00.476Z,62.16
2022-10-11T14:57:04.483Z,62.08
2022-10-11T15:02:11.984Z,62.26
2022-10-11T15:07:15.885Z,62.40
2022-10-11T15:12:18.405Z,62.49
2022-10-11T15:17:20.993Z,62.57
2022-10-11T15:22:25.046Z,62.74
2022-10-11T15:27:28.633Z,62.87
2022-10-11T15:32:31.232Z,62.71
2022-10-11T15:37:37.342Z,62.86
2022-10-11T15:42:41.476Z,63.07
2022-10-11T15:47:44.545Z,62.97
2022-10-11T15:52:48.557Z,63.15
2022-10-11T15:57:51.191Z,63.29
2022-10-11T16:02:54.792Z,63.50
2022-10-11T16:07:58.828Z,63.80
2022-10-11T16:13:02.024Z,64.14
2022-10-11T16:18:05.331Z,64.55
2022-10-11T16:23:09.887Z,64.35
2022-10-11T16:28:12.836Z,64.33
2022-10-11T16:33:15.523Z,64.25
2022-10-11T16:38:19.595Z,64.16
2022-10-11T16:43:22.207Z,64.29
2022-10-11T16:48:24.794Z,64.37
2022-10-11T16:53:28.862Z,64.14
2022-10-11T16:58:31.726Z,63.88
2022-10-11T17:03:34.302Z,63.63
2022-10-11T17:08:38.474Z,63.51
2022-10-11T17:13:41.288Z,63.41
2022-10-11T17:18:44.431Z,63.14
2022-10-11T17:23:49.315Z,63.06
2022-10-11T17:28:51.952Z,62.89
2022-10-11T17:33:54.853Z,62.82
2022-10-11T17:39:00.861Z,62.94
2022-10-11T17:44:03.558Z,62.77
2022-10-11T17:49:08.586Z,62.81
2022-10-11T17:54:13.375Z,62.82
2022-10-11T17:59:18.676Z,62.69
2022-10-11T18:04:22.302Z,62.87
2022-10-11T18:09:26.246Z,62.59
2022-10-11T18:14:28.831Z,62.86
2022-10-11T18:19:31.901Z,62.74
2022-10-11T18:24:36.008Z,62.73
2022-10-11T18:29:38.697Z,62.76
2022-10-11T18:34:41.433Z,62.54
2022-10-11T18:39:45.368Z,62.39
2022-10-11T18:44:48.348Z,62.42
2022-10-11T18:49:51.102Z,62.35
2022-10-11T18:54:55.028Z,62.28
2022-10-11T18:59:57.824Z,62.12
2022-10-11T19:05:00.490Z,62.35
2022-10-11T19:10:04.855Z,62.04
2022-10-11T19:15:08.174Z,61.93
2022-10-11T19:20:12.171Z,61.98
2022-10-11T19:25:16.250Z,62.04
2022-10-11T19:30:19.036Z,61.98
2022-10-11T19:35:21.688Z,62.09
2022-10-11T19:40:27.288Z,62.05
2022-10-11T19:45:36.015Z,61.80
2022-10-11T19:50:38.822Z,61.89
2022-10-11T19:55:46.358Z,61.68
2022-10-11T20:00:49.412Z,61.86
2022-10-11T20:05:51.957Z,61.85
2022-10-11T20:10:56.263Z,61.87
2022-10-11T20:15:59.836Z,61.78
2022-10-11T20:21:04.156Z,62.01
2022-10-11T20:26:09.666Z,62.39
2022-10-11T20:31:14.485Z,62.53
2022-10-11T20:36:18.682Z,62.54
2022-10-11T20:41:24.897Z,62.75
2022-10-11T20:46:29.802Z,62.68
2022-10-11T20:51:33.954Z,63.03
2022-10-11T20:56:38.551Z,62.96
2022-10-11T21:01:41.782Z,62.89
2022-10-11T21:06:44.447Z,63.27
2022-10-11T21:11:48.365Z,63.18
2022-10-11T21:16:51.124Z,63.48
2022-10-11T21:21:54.029Z,63.68
2022-10-11T21:27:00.639Z,63.70
2022-10-11T21:32:03.531Z,63.69
2022-10-11T21:37:06.110Z,63.79
2022-10-11T21:42:10.195Z,63.91
2022-10-11T21:47:12.777Z,64.04
2022-10-11T21:52:15.519Z,63.69
2022-10-11T21:57:19.429Z,63.84
2022-10-11T22:02:21.970Z,64.01
2022-10-11T22:07:24.554Z,64.22
2022-10-11T22:12:28.498Z,64.11
2022-10-11T22:17:31.111Z,63.99
2022-10-11T22:22:33.979Z,64.21
2022-10-11T22:27:38.117Z,64.31
2022-10-11T22:32:40.881Z,64.66
2022-10-11T22:37:43.857Z,64.84
2022-10-11T22:42:47.894Z,65.07
2022-10-11T22:47:50.502Z,65.24
2022-10-11T22:52:53.165Z,65.27
2022-10-11T22:57:57.128Z,65.68
2022-10-11T23:02:59.806Z,66.03
2022-10-11T23:08:04.736Z,66.25
2022-10-11T23:13:08.660Z,66.59
2022-10-11T23:18:11.344Z,66.80
2022-10-11T23:23:14.000Z,67.06
2022-10-11T23:28:17.944Z,67.49
2022-10-11T23:33:20.530Z,67.73
2022-10-11T23:38:23.173Z,68.04
2022-10-11T23:43:27.096Z,68.36
2022-10-11T23:48:29.676Z,68.73
2022-10-11T23:53:32.292Z,68.94
2022-10-11T23:58:36.375Z,69.21
